Pireps
You are here: Olympic Virtual Pireps

Flight OLY10024

  • Submitted By: Stavros Sarikas
  • Departure Airport: HEATHROW (EGLL)
  • Arrival Airport: GLASGOW (EGPF)
  • Aircraft: A320-200 (SX-OAH)
  • Flight Time: 01.13
  • Date Submitted: 30/08/2017
  • Route: TNT T420 POL UN57 DCS
  • Status: Accepted
Flight Details
Gross Revenue:
(138 load / € 75.00 per unit
€ 10, 350.00
Fuel Cost:
(235 fuel used @ 0.19 / unit)
€ 44.65

Additional Log Information:

View Log

Aircraft Used in flight is Airbus A320 British Airways G-EUUU
13:24 Boarding
13:24 Beacon Lights ON at 90 Feet
13:24 Brakes are On
13:24 Navigation Lights ON at 90 Feet
13:24 In Air Refuel Suspected
13:29 Engine 2 Started
13:30 Engine 1 Started
13:30 Brakes are Released
13:31 Brakes are On
13:31 Brakes are Released
13:31 Pushing back
13:32 Flaps 3 Selected at 90ft and 14kts
13:32 Taxi Lights ON at 90 Feet
13:33 Landing Lights ON at 90 AGL
13:33 Strobe Lights ON at 90 Feet
13:37 You Took off @ 148 Knots and Flaps at Position 3 With a heading of 89 Degrees
Departure Weather EGLL 301020Z AUTO 35004KT 300V040 9999 -RA FEW027 SCT034 14/11 Q1014
Departure Coordinates 51.4777011356509/ -0.453432867474194
Takeoff Weight=59640KG Fuel Weight=4796KG
13:37 TOC Reached
13:37 Paused
13:38 Landing Gear Up @ 139 Knots and 150 Feet
13:38 Taxi Lights OFF at 160 Feet
13:38 Unpaused
13:38 Flaps 2 Selected at 1630ft and 146kts
13:39 Flaps 0 Selected at 2310ft and 185kts
13:39 Below 10000 feet you are not allowed to go over 250 knots
13:42 Above FL100 you need to switch of the landing lights
13:42 Landing Lights OFF at 10110 AGL
14:16 You exceeded maximum bank angle
14:22 Landing Lights ON at 9790 AGL
14:32 Flaps 1 Selected at 2390ft and 194kts
14:33 Flaps 3 Selected at 1990ft and 149kts
14:33 Landing Gear Down @ 150 Knots and 1930 Feet
14:34 Flaps 4 Selected at 1800ft and 138kts
14:34 Taxi Lights ON at 1760 Feet
14:34 Flaps 5 Selected at 1710ft and 133kts
14:37 You Landed @ 128 Knots with -372 Vertical Speed With a heading of 47 and with 2.6928 G Force
Arrival Weather: EGPF 301120Z AUTO 23008KT 9999 FEW030 15/10 Q1011
Arrival Coordinates 55.8640893931572/ -4.44795689248948
Landing Weight=57036KG Fuel Weight=2192KG
14:37 Taxiing to gate
Pirep logged with OA Virtual Tracking 1.0.2.4

Route Map